sensor_id;sensor_type;location;lat;lon;timestamp;pressure;altitude;pressure_sealevel;temperature;humidity
69239;BME280;56349;51.816;-0.026;2023-06-14T00:00:26;101069.45;;;32.66;26.73
69239;BME280;56349;51.816;-0.026;2023-06-14T00:02:52;101065.08;;;32.69;26.74
69239;BME280;56349;51.816;-0.026;2023-06-14T00:05:18;101067.68;;;32.73;26.74
69239;BME280;56349;51.816;-0.026;2023-06-14T00:07:44;101071.29;;;32.58;26.69
69239;BME280;56349;51.816;-0.026;2023-06-14T00:10:20;101070.60;;;32.64;26.65
69239;BME280;56349;51.816;-0.026;2023-06-14T00:12:36;101067.04;;;32.49;26.59
69239;BME280;56349;51.816;-0.026;2023-06-14T00:15:01;101066.88;;;32.59;26.51
69239;BME280;56349;51.816;-0.026;2023-06-14T00:17:26;101067.16;;;33.11;26.46
69239;BME280;56349;51.816;-0.026;2023-06-14T00:19:52;101066.21;;;33.17;26.40
69239;BME280;56349;51.816;-0.026;2023-06-14T00:22:18;101065.83;;;32.80;26.33
69239;BME280;56349;51.816;-0.026;2023-06-14T00:24:44;101068.86;;;33.34;26.25
69239;BME280;56349;51.816;-0.026;2023-06-14T00:27:09;101071.15;;;33.43;26.16
69239;BME280;56349;51.816;-0.026;2023-06-14T00:29:35;101078.70;;;33.03;26.10
69239;BME280;56349;51.816;-0.026;2023-06-14T00:32:02;101086.53;;;33.10;26.04
69239;BME280;56349;51.816;-0.026;2023-06-14T00:34:27;101090.82;;;33.17;25.98
69239;BME280;56349;51.816;-0.026;2023-06-14T00:36:53;101093.03;;;33.21;25.91
69239;BME280;56349;51.816;-0.026;2023-06-14T00:39:19;101098.93;;;33.24;25.89
69239;BME280;56349;51.816;-0.026;2023-06-14T00:41:45;101097.93;;;33.27;25.85
69239;BME280;56349;51.816;-0.026;2023-06-14T00:44:10;101100.71;;;33.05;25.79
69239;BME280;56349;51.816;-0.026;2023-06-14T00:46:35;101099.41;;;33.38;25.73
69239;BME280;56349;51.816;-0.026;2023-06-14T00:49:02;101100.36;;;33.42;25.69
69239;BME280;56349;51.816;-0.026;2023-06-14T00:51:27;101106.89;;;33.16;25.65
69239;BME280;56349;51.816;-0.026;2023-06-14T00:53:52;101108.96;;;33.41;25.61
69239;BME280;56349;51.816;-0.026;2023-06-14T00:56:18;101107.30;;;33.30;25.62
69239;BME280;56349;51.816;-0.026;2023-06-14T00:58:43;101103.58;;;33.11;25.70
69239;BME280;56349;51.816;-0.026;2023-06-14T01:01:08;101100.90;;;33.09;25.82
69239;BME280;56349;51.816;-0.026;2023-06-14T01:03:34;101109.94;;;32.81;26.01
69239;BME280;56349;51.816;-0.026;2023-06-14T01:06:09;101113.55;;;32.76;26.21
69239;BME280;56349;51.816;-0.026;2023-06-14T01:08:31;101118.07;;;32.53;26.42
69239;BME280;56349;51.816;-0.026;2023-06-14T01:10:59;101120.61;;;32.38;26.59
69239;BME280;56349;51.816;-0.026;2023-06-14T01:13:21;101122.52;;;32.55;26.70
69239;BME280;56349;51.816;-0.026;2023-06-14T01:15:43;101124.13;;;32.23;26.78
69239;BME280;56349;51.816;-0.026;2023-06-14T01:18:08;101128.26;;;32.48;26.84
69239;BME280;56349;51.816;-0.026;2023-06-14T01:20:34;101128.34;;;32.51;26.84
69239;BME280;56349;51.816;-0.026;2023-06-14T01:22:59;101127.63;;;32.54;26.84
69239;BME280;56349;51.816;-0.026;2023-06-14T01:25:24;101128.10;;;32.32;26.81
69239;BME280;56349;51.816;-0.026;2023-06-14T01:27:52;101121.11;;;32.39;26.78
69239;BME280;56349;51.816;-0.026;2023-06-14T01:30:15;101119.95;;;32.44;26.75
69239;BME280;56349;51.816;-0.026;2023-06-14T01:32:41;101114.87;;;32.52;26.68
69239;BME280;56349;51.816;-0.026;2023-06-14T01:35:08;101116.07;;;32.62;26.62
69239;BME280;56349;51.816;-0.026;2023-06-14T01:37:33;101112.89;;;32.68;26.56
69239;BME280;56349;51.816;-0.026;2023-06-14T01:39:58;101111.88;;;32.74;26.49
69239;BME280;56349;51.816;-0.026;2023-06-14T01:42:24;101113.90;;;32.58;26.44
69239;BME280;56349;51.816;-0.026;2023-06-14T01:44:49;101114.10;;;32.64;26.38
69239;BME280;56349;51.816;-0.026;2023-06-14T01:47:14;101112.00;;;32.49;26.31
69239;BME280;56349;51.816;-0.026;2023-06-14T01:49:39;101110.20;;;33.00;26.25
69239;BME280;56349;51.816;-0.026;2023-06-14T01:52:06;101104.97;;;33.05;26.19
69239;BME280;56349;51.816;-0.026;2023-06-14T01:54:31;101100.38;;;32.66;26.13
69239;BME280;56349;51.816;-0.026;2023-06-14T01:56:57;101100.01;;;32.72;26.07
69239;BME280;56349;51.816;-0.026;2023-06-14T01:59:23;101094.72;;;32.77;26.01
69239;BME280;56349;51.816;-0.026;2023-06-14T02:01:49;101091.45;;;33.25;25.96
69239;BME280;56349;51.816;-0.026;2023-06-14T02:04:15;101084.96;;;32.85;25.88
69239;BME280;56349;51.816;-0.026;2023-06-14T02:06:41;101082.12;;;32.91;25.80
69239;BME280;56349;51.816;-0.026;2023-06-14T02:09:07;101076.77;;;32.95;25.70
69239;BME280;56349;51.816;-0.026;2023-06-14T02:11:33;101073.00;;;32.94;25.64
69239;BME280;56349;51.816;-0.026;2023-06-14T02:13:59;101073.88;;;32.86;25.62
69239;BME280;56349;51.816;-0.026;2023-06-14T02:16:25;101076.52;;;32.95;25.64
69239;BME280;56349;51.816;-0.026;2023-06-14T02:18:51;101076.45;;;32.99;25.72
69239;BME280;56349;51.816;-0.026;2023-06-14T02:21:17;101082.20;;;32.56;25.82
69239;BME280;56349;51.816;-0.026;2023-06-14T02:23:42;101081.35;;;32.56;25.95
69239;BME280;56349;51.816;-0.026;2023-06-14T02:26:08;101075.26;;;32.58;26.09
69239;BME280;56349;51.816;-0.026;2023-06-14T02:28:34;101073.43;;;32.34;26.25
69239;BME280;56349;51.816;-0.026;2023-06-14T02:31:00;101069.49;;;32.07;26.42
69239;BME280;56349;51.816;-0.026;2023-06-14T02:33:26;101064.16;;;32.02;26.63
69239;BME280;56349;51.816;-0.026;2023-06-14T02:35:52;101066.16;;;31.77;26.84
69239;BME280;56349;51.816;-0.026;2023-06-14T02:38:18;101063.22;;;31.53;27.01
69239;BME280;56349;51.816;-0.026;2023-06-14T02:40:44;101064.49;;;31.29;27.24
69239;BME280;56349;51.816;-0.026;2023-06-14T02:43:10;101070.43;;;31.27;27.44
69239;BME280;56349;51.816;-0.026;2023-06-14T02:45:36;101070.39;;;31.30;27.66
69239;BME280;56349;51.816;-0.026;2023-06-14T02:48:03;101068.92;;;31.05;27.89
69239;BME280;56349;51.816;-0.026;2023-06-14T02:50:28;101067.64;;;30.81;28.13
69239;BME280;56349;51.816;-0.026;2023-06-14T02:52:54;101065.80;;;30.80;28.34
69239;BME280;56349;51.816;-0.026;2023-06-14T02:55:20;101069.40;;;30.58;28.55
69239;BME280;56349;51.816;-0.026;2023-06-14T02:57:46;101066.65;;;30.13;28.77
69239;BME280;56349;51.816;-0.026;2023-06-14T03:00:12;101065.07;;;30.15;28.97
69239;BME280;56349;51.816;-0.026;2023-06-14T03:02:37;101067.56;;;30.22;29.16
69239;BME280;56349;51.816;-0.026;2023-06-14T03:05:04;101068.95;;;29.76;29.36
69239;BME280;56349;51.816;-0.026;2023-06-14T03:07:29;101070.91;;;30.29;29.57
69239;BME280;56349;51.816;-0.026;2023-06-14T03:09:55;101068.98;;;29.66;29.75
69239;BME280;56349;51.816;-0.026;2023-06-14T03:12:21;101066.07;;;29.71;29.93
69239;BME280;56349;51.816;-0.026;2023-06-14T03:14:47;101068.30;;;29.78;30.09
69239;BME280;56349;51.816;-0.026;2023-06-14T03:17:13;101070.85;;;29.19;30.23
69239;BME280;56349;51.816;-0.026;2023-06-14T03:19:39;101070.69;;;29.51;30.38
69239;BME280;56349;51.816;-0.026;2023-06-14T03:22:05;101071.45;;;29.17;30.51
69239;BME280;56349;51.816;-0.026;2023-06-14T03:24:31;101074.38;;;28.82;30.66
69239;BME280;56349;51.816;-0.026;2023-06-14T03:26:57;101076.37;;;29.14;30.80
69239;BME280;56349;51.816;-0.026;2023-06-14T03:29:23;101075.14;;;29.02;30.95
69239;BME280;56349;51.816;-0.026;2023-06-14T03:31:57;101073.48;;;28.92;31.11
69239;BME280;56349;51.816;-0.026;2023-06-14T03:34:15;101075.45;;;28.84;31.27
69239;BME280;56349;51.816;-0.026;2023-06-14T03:36:41;101070.95;;;28.80;31.38
69239;BME280;56349;51.816;-0.026;2023-06-14T03:39:07;101071.92;;;28.81;31.47
69239;BME280;56349;51.816;-0.026;2023-06-14T03:41:33;101072.18;;;28.86;31.52
69239;BME280;56349;51.816;-0.026;2023-06-14T03:43:59;101073.27;;;28.74;31.49
69239;BME280;56349;51.816;-0.026;2023-06-14T03:46:25;101073.49;;;28.65;31.39
69239;BME280;56349;51.816;-0.026;2023-06-14T03:48:51;101071.49;;;28.98;31.26
69239;BME280;56349;51.816;-0.026;2023-06-14T03:51:17;101074.82;;;28.85;31.14
69239;BME280;56349;51.816;-0.026;2023-06-14T03:53:43;101075.45;;;29.12;31.08
69239;BME280;56349;51.816;-0.026;2023-06-14T03:56:09;101079.30;;;29.13;31.02
69239;BME280;56349;51.816;-0.026;2023-06-14T03:58:35;101079.98;;;29.33;30.99
69239;BME280;56349;51.816;-0.026;2023-06-14T04:01:01;101078.91;;;29.32;30.95
69239;BME280;56349;51.816;-0.026;2023-06-14T04:03:27;101083.54;;;29.29;30.97
69239;BME280;56349;51.816;-0.026;2023-06-14T04:05:52;101080.98;;;29.22;31.00
69239;BME280;56349;51.816;-0.026;2023-06-14T04:08:17;101078.06;;;29.16;31.00
69239;BME280;56349;51.816;-0.026;2023-06-14T04:10:43;101078.99;;;29.07;31.06
69239;BME280;56349;51.816;-0.026;2023-06-14T04:13:09;101079.51;;;28.98;31.13
69239;BME280;56349;51.816;-0.026;2023-06-14T04:15:35;101077.58;;;28.88;31.22
69239;BME280;56349;51.816;-0.026;2023-06-14T04:18:01;101076.58;;;29.04;31.28
69239;BME280;56349;51.816;-0.026;2023-06-14T04:20:28;101075.44;;;28.67;31.37
69239;BME280;56349;51.816;-0.026;2023-06-14T04:22:56;101076.13;;;28.57;31.45
69239;BME280;56349;51.816;-0.026;2023-06-14T04:25:20;101076.69;;;28.49;31.50
69239;BME280;56349;51.816;-0.026;2023-06-14T04:27:45;101075.96;;;28.68;31.56
69239;BME280;56349;51.816;-0.026;2023-06-14T04:30:10;101079.45;;;28.33;31.63
69239;BME280;56349;51.816;-0.026;2023-06-14T04:32:35;101077.41;;;28.23;31.70
69239;BME280;56349;51.816;-0.026;2023-06-14T04:35:01;101077.57;;;28.39;31.79
69239;BME280;56349;51.816;-0.026;2023-06-14T04:37:27;101080.22;;;28.31;31.88
69239;BME280;56349;51.816;-0.026;2023-06-14T04:39:54;101085.60;;;27.96;31.95
69239;BME280;56349;51.816;-0.026;2023-06-14T04:42:19;101086.96;;;28.15;32.03
69239;BME280;56349;51.816;-0.026;2023-06-14T04:44:45;101087.99;;;28.07;32.10
69239;BME280;56349;51.816;-0.026;2023-06-14T04:47:12;101086.80;;;28.23;32.15
69239;BME280;56349;51.816;-0.026;2023-06-14T04:49:37;101090.33;;;28.16;32.21
69239;BME280;56349;51.816;-0.026;2023-06-14T04:52:03;101096.41;;;28.08;32.30
69239;BME280;56349;51.816;-0.026;2023-06-14T04:54:28;101099.27;;;28.00;32.39
69239;BME280;56349;51.816;-0.026;2023-06-14T04:56:54;101100.66;;;27.72;32.48
69239;BME280;56349;51.816;-0.026;2023-06-14T04:59:20;101098.26;;;27.88;32.50
69239;BME280;56349;51.816;-0.026;2023-06-14T05:01:46;101097.56;;;27.83;32.55
69239;BME280;56349;51.816;-0.026;2023-06-14T05:04:12;101096.19;;;27.77;32.61
69239;BME280;56349;51.816;-0.026;2023-06-14T05:06:38;101097.83;;;27.72;32.67
69239;BME280;56349;51.816;-0.026;2023-06-14T05:09:04;101097.33;;;27.68;32.71
69239;BME280;56349;51.816;-0.026;2023-06-14T05:11:29;101095.62;;;27.64;32.76
69239;BME280;56349;51.816;-0.026;2023-06-14T05:13:55;101100.92;;;27.59;32.80
69239;BME280;56349;51.816;-0.026;2023-06-14T05:16:20;101097.12;;;27.54;32.85
69239;BME280;56349;51.816;-0.026;2023-06-14T05:18:47;101099.08;;;27.50;32.90
69239;BME280;56349;51.816;-0.026;2023-06-14T05:21:13;101101.65;;;27.44;32.95
69239;BME280;56349;51.816;-0.026;2023-06-14T05:23:39;101101.38;;;27.65;33.00
69239;BME280;56349;51.816;-0.026;2023-06-14T05:26:04;101101.73;;;27.35;33.05
69239;BME280;56349;51.816;-0.026;2023-06-14T05:28:30;101099.94;;;27.30;33.10
69239;BME280;56349;51.816;-0.026;2023-06-14T05:30:56;101101.94;;;27.53;33.13
69239;BME280;56349;51.816;-0.026;2023-06-14T05:33:22;101103.86;;;27.22;33.18
69239;BME280;56349;51.816;-0.026;2023-06-14T05:35:48;101101.77;;;27.18;33.22
69239;BME280;56349;51.816;-0.026;2023-06-14T05:38:14;101100.77;;;27.40;33.26
69239;BME280;56349;51.816;-0.026;2023-06-14T05:40:40;101098.13;;;27.09;33.32
69239;BME280;56349;51.816;-0.026;2023-06-14T05:43:06;101101.33;;;27.05;33.38
69239;BME280;56349;51.816;-0.026;2023-06-14T05:45:32;101105.08;;;27.50;33.42
69239;BME280;56349;51.816;-0.026;2023-06-14T05:47:58;101106.99;;;27.24;33.46
69239;BME280;56349;51.816;-0.026;2023-06-14T05:50:24;101108.63;;;26.93;33.50
69239;BME280;56349;51.816;-0.026;2023-06-14T05:52:50;101111.26;;;27.42;33.51
69239;BME280;56349;51.816;-0.026;2023-06-14T05:55:16;101109.01;;;27.35;33.56
69239;BME280;56349;51.816;-0.026;2023-06-14T05:57:41;101111.45;;;27.32;33.62
69239;BME280;56349;51.816;-0.026;2023-06-14T06:00:09;101115.15;;;26.79;33.66
69239;BME280;56349;51.816;-0.026;2023-06-14T06:02:32;101114.06;;;27.25;33.70
69239;BME280;56349;51.816;-0.026;2023-06-14T06:04:58;101110.20;;;26.98;33.73
69239;BME280;56349;51.816;-0.026;2023-06-14T06:07:24;101112.07;;;26.97;33.76
69239;BME280;56349;51.816;-0.026;2023-06-14T06:09:50;101109.42;;;27.16;33.78
69239;BME280;56349;51.816;-0.026;2023-06-14T06:12:16;101113.19;;;27.14;33.81
69239;BME280;56349;51.816;-0.026;2023-06-14T06:14:42;101116.70;;;26.88;33.84
69239;BME280;56349;51.816;-0.026;2023-06-14T06:17:08;101116.11;;;27.08;33.87
69239;BME280;56349;51.816;-0.026;2023-06-14T06:19:35;101114.89;;;27.06;33.90
69239;BME280;56349;51.816;-0.026;2023-06-14T06:22:01;101117.71;;;27.04;33.92
69239;BME280;56349;51.816;-0.026;2023-06-14T06:24:26;101119.88;;;26.81;33.93
69239;BME280;56349;51.816;-0.026;2023-06-14T06:26:52;101122.08;;;27.01;33.97
69239;BME280;56349;51.816;-0.026;2023-06-14T06:29:19;101124.74;;;27.01;34.04
69239;BME280;56349;51.816;-0.026;2023-06-14T06:31:43;101124.60;;;27.02;34.21
69239;BME280;56349;51.816;-0.026;2023-06-14T06:34:10;101119.94;;;27.05;34.47
69239;BME280;56349;51.816;-0.026;2023-06-14T06:36:36;101121.61;;;26.92;34.80
69239;BME280;56349;51.816;-0.026;2023-06-14T06:39:02;101123.99;;;26.80;35.17
69239;BME280;56349;51.816;-0.026;2023-06-14T06:41:28;101121.37;;;27.26;35.28
69239;BME280;56349;51.816;-0.026;2023-06-14T06:43:54;101115.01;;;27.23;34.59
69239;BME280;56349;51.816;-0.026;2023-06-14T06:46:20;101117.19;;;27.48;33.99
69239;BME280;56349;51.816;-0.026;2023-06-14T06:48:46;101120.69;;;27.74;33.25
69239;BME280;56349;51.816;-0.026;2023-06-14T06:51:12;101122.68;;;28.04;32.98
69239;BME280;56349;51.816;-0.026;2023-06-14T06:53:38;101122.69;;;28.32;32.67
69239;BME280;56349;51.816;-0.026;2023-06-14T06:56:04;101123.61;;;28.41;32.35
69239;BME280;56349;51.816;-0.026;2023-06-14T06:58:30;101124.26;;;28.71;31.87
69239;BME280;56349;51.816;-0.026;2023-06-14T07:00:56;101120.03;;;28.73;31.65
69239;BME280;56349;51.816;-0.026;2023-06-14T07:03:22;101119.75;;;28.79;31.30
69239;BME280;56349;51.816;-0.026;2023-06-14T07:05:48;101120.16;;;28.85;30.92
69239;BME280;56349;51.816;-0.026;2023-06-14T07:08:14;101124.13;;;29.13;30.62
69239;BME280;56349;51.816;-0.026;2023-06-14T07:10:40;101123.75;;;29.38;30.23
69239;BME280;56349;51.816;-0.026;2023-06-14T07:13:06;101126.64;;;29.63;29.89
69239;BME280;56349;51.816;-0.026;2023-06-14T07:15:32;101129.33;;;29.87;29.59
69239;BME280;56349;51.816;-0.026;2023-06-14T07:17:58;101131.68;;;30.09;29.23
69239;BME280;56349;51.816;-0.026;2023-06-14T07:20:24;101132.15;;;30.04;28.96
69239;BME280;56349;51.816;-0.026;2023-06-14T07:22:50;101131.44;;;30.03;28.66
69239;BME280;56349;51.816;-0.026;2023-06-14T07:25:16;101133.89;;;30.24;28.40
69239;BME280;56349;51.816;-0.026;2023-06-14T07:27:43;101135.70;;;30.41;28.25
69239;BME280;56349;51.816;-0.026;2023-06-14T07:30:08;101135.18;;;30.55;27.94
69239;BME280;56349;51.816;-0.026;2023-06-14T07:32:35;101134.96;;;30.16;27.67
69239;BME280;56349;51.816;-0.026;2023-06-14T07:34:59;101136.53;;;30.72;27.48
69239;BME280;56349;51.816;-0.026;2023-06-14T07:37:25;101139.01;;;30.46;27.38
69239;BME280;56349;51.816;-0.026;2023-06-14T07:39:51;101138.01;;;30.68;27.26
69239;BME280;56349;51.816;-0.026;2023-06-14T07:42:17;101141.53;;;30.61;27.41
69239;BME280;56349;51.816;-0.026;2023-06-14T07:44:43;101143.40;;;30.50;27.52
69239;BME280;56349;51.816;-0.026;2023-06-14T07:47:09;101144.63;;;30.36;27.59
69239;BME280;56349;51.816;-0.026;2023-06-14T07:49:35;101143.63;;;30.22;27.69
69239;BME280;56349;51.816;-0.026;2023-06-14T07:52:01;101141.53;;;30.27;27.52
69239;BME280;56349;51.816;-0.026;2023-06-14T07:54:26;101142.73;;;29.96;26.92
69239;BME280;56349;51.816;-0.026;2023-06-14T07:56:52;101148.04;;;29.89;26.90
69239;BME280;56349;51.816;-0.026;2023-06-14T07:59:19;101151.71;;;29.26;26.83
69239;BME280;56349;51.816;-0.026;2023-06-14T08:01:45;101151.50;;;28.91;26.99
69239;BME280;56349;51.816;-0.026;2023-06-14T08:04:11;101149.86;;;28.87;27.19
69239;BME280;56349;51.816;-0.026;2023-06-14T08:06:37;101150.56;;;28.82;27.62
69239;BME280;56349;51.816;-0.026;2023-06-14T08:09:03;101152.05;;;28.79;27.83
69239;BME280;56349;51.816;-0.026;2023-06-14T08:11:29;101149.41;;;28.54;28.11
69239;BME280;56349;51.816;-0.026;2023-06-14T08:13:55;101148.78;;;28.59;28.20
69239;BME280;56349;51.816;-0.026;2023-06-14T08:16:21;101150.66;;;28.11;28.38
69239;BME280;56349;51.816;-0.026;2023-06-14T08:18:48;101152.94;;;28.39;28.64
69239;BME280;56349;51.816;-0.026;2023-06-14T08:21:13;101154.14;;;27.97;28.79
69239;BME280;56349;51.816;-0.026;2023-06-14T08:23:39;101156.06;;;28.06;29.32
69239;BME280;56349;51.816;-0.026;2023-06-14T08:26:04;101154.35;;;27.76;29.68
69239;BME280;56349;51.816;-0.026;2023-06-14T08:28:31;101152.56;;;27.93;29.89
69239;BME280;56349;51.816;-0.026;2023-06-14T08:30:57;101155.66;;;27.89;30.04
69239;BME280;56349;51.816;-0.026;2023-06-14T08:33:22;101156.40;;;27.60;30.09
69239;BME280;56349;51.816;-0.026;2023-06-14T08:35:49;101160.40;;;27.78;30.26
69239;BME280;56349;51.816;-0.026;2023-06-14T08:38:15;101154.92;;;27.72;30.36
69239;BME280;56349;51.816;-0.026;2023-06-14T08:40:41;101155.45;;;27.67;30.44
69239;BME280;56349;51.816;-0.026;2023-06-14T08:43:06;101154.19;;;27.61;30.52
69239;BME280;56349;51.816;-0.026;2023-06-14T08:45:31;101161.67;;;27.55;30.60
69239;BME280;56349;51.816;-0.026;2023-06-14T08:47:58;101162.84;;;27.50;30.67
69239;BME280;56349;51.816;-0.026;2023-06-14T08:50:24;101163.85;;;27.46;30.73
69239;BME280;56349;51.816;-0.026;2023-06-14T08:52:54;101165.65;;;27.41;30.78
69239;BME280;56349;51.816;-0.026;2023-06-14T08:55:16;101162.07;;;27.36;30.85
69239;BME280;56349;51.816;-0.026;2023-06-14T08:57:41;101161.31;;;27.31;30.89
69239;BME280;56349;51.816;-0.026;2023-06-14T09:00:08;101163.19;;;27.54;30.91
69239;BME280;56349;51.816;-0.026;2023-06-14T09:02:34;101158.94;;;27.50;30.94
69239;BME280;56349;51.816;-0.026;2023-06-14T09:04:58;101157.62;;;27.19;30.98
69239;BME280;56349;51.816;-0.026;2023-06-14T09:07:24;101158.00;;;27.14;31.01
69239;BME280;56349;51.816;-0.026;2023-06-14T09:12:17;101160.92;;;27.03;31.17
69239;BME280;56349;51.816;-0.026;2023-06-14T09:14:42;101164.03;;;27.47;31.24
69239;BME280;56349;51.816;-0.026;2023-06-14T09:17:07;101164.01;;;27.20;31.31
69239;BME280;56349;51.816;-0.026;2023-06-14T09:19:34;101161.51;;;27.38;31.39
69239;BME280;56349;51.816;-0.026;2023-06-14T09:21:58;101164.77;;;26.86;31.45
69239;BME280;56349;51.816;-0.026;2023-06-14T09:24:25;101168.49;;;27.10;31.52
69239;BME280;56349;51.816;-0.026;2023-06-14T09:26:51;101167.06;;;27.29;31.57
69239;BME280;56349;51.816;-0.026;2023-06-14T09:29:18;101167.91;;;26.76;31.67
69239;BME280;56349;51.816;-0.026;2023-06-14T09:31:42;101168.65;;;26.98;31.80
69239;BME280;56349;51.816;-0.026;2023-06-14T09:34:09;101168.76;;;26.98;31.91
69239;BME280;56349;51.816;-0.026;2023-06-14T09:36:34;101170.92;;;27.03;31.97
69239;BME280;56349;51.816;-0.026;2023-06-14T09:39:01;101172.24;;;27.33;31.99
69239;BME280;56349;51.816;-0.026;2023-06-14T09:41:31;101169.07;;;26.97;31.98
69239;BME280;56349;51.816;-0.026;2023-06-14T09:43:51;101171.26;;;27.11;31.90
69239;BME280;56349;51.816;-0.026;2023-06-14T09:46:17;101173.66;;;27.55;31.80
69239;BME280;56349;51.816;-0.026;2023-06-14T09:48:42;101175.05;;;27.26;31.66
69239;BME280;56349;51.816;-0.026;2023-06-14T09:51:10;101171.39;;;27.69;31.49
69239;BME280;56349;51.816;-0.026;2023-06-14T09:53:34;101172.60;;;27.70;31.30
69239;BME280;56349;51.816;-0.026;2023-06-14T09:55:59;101179.02;;;27.93;31.10
69239;BME280;56349;51.816;-0.026;2023-06-14T09:58:26;101178.55;;;28.41;30.86
69239;BME280;56349;51.816;-0.026;2023-06-14T10:00:51;101179.62;;;28.17;30.63
69239;BME280;56349;51.816;-0.026;2023-06-14T10:03:21;101175.25;;;28.43;30.40
69239;BME280;56349;51.816;-0.026;2023-06-14T10:05:45;101168.32;;;28.21;30.18
69239;BME280;56349;51.816;-0.026;2023-06-14T10:08:09;101177.60;;;28.48;29.93
69239;BME280;56349;51.816;-0.026;2023-06-14T10:10:33;101178.84;;;29.14;29.71
69239;BME280;56349;51.816;-0.026;2023-06-14T10:12:59;101177.26;;;29.14;29.50
69239;BME280;56349;51.816;-0.026;2023-06-14T10:15:30;101171.37;;;29.12;29.29
69239;BME280;56349;51.816;-0.026;2023-06-14T10:17:52;101169.91;;;29.32;29.09
69239;BME280;56349;51.816;-0.026;2023-06-14T10:20:25;101172.59;;;29.51;28.87
69239;BME280;56349;51.816;-0.026;2023-06-14T10:22:45;101176.24;;;29.68;28.65
69239;BME280;56349;51.816;-0.026;2023-06-14T10:25:07;101169.67;;;29.54;28.46
69239;BME280;56349;51.816;-0.026;2023-06-14T10:27:32;101169.84;;;29.40;28.32
69239;BME280;56349;51.816;-0.026;2023-06-14T10:30:04;101172.51;;;29.64;28.22
69239;BME280;56349;51.816;-0.026;2023-06-14T10:32:25;101171.65;;;29.89;28.16
69239;BME280;56349;51.816;-0.026;2023-06-14T10:34:54;101171.24;;;29.84;28.13
69239;BME280;56349;51.816;-0.026;2023-06-14T10:37:16;101169.01;;;29.51;28.13
69239;BME280;56349;51.816;-0.026;2023-06-14T10:39:42;101172.96;;;29.67;28.17
69239;BME280;56349;51.816;-0.026;2023-06-14T10:42:06;101173.04;;;29.55;28.21
69239;BME280;56349;51.816;-0.026;2023-06-14T10:44:34;101168.43;;;29.43;28.29
69239;BME280;56349;51.816;-0.026;2023-06-14T10:46:59;101166.77;;;29.00;28.39
69239;BME280;56349;51.816;-0.026;2023-06-14T10:51:50;101169.24;;;29.43;28.61
69239;BME280;56349;51.816;-0.026;2023-06-14T10:54:15;101165.04;;;28.85;28.72
69239;BME280;56349;51.816;-0.026;2023-06-14T10:56:46;101166.78;;;28.93;28.83
69239;BME280;56349;51.816;-0.026;2023-06-14T10:59:05;101167.71;;;29.03;28.94
69239;BME280;56349;51.816;-0.026;2023-06-14T11:01:38;101172.16;;;28.89;29.07
69239;BME280;56349;51.816;-0.026;2023-06-14T11:04:01;101164.28;;;28.75;29.21
69239;BME280;56349;51.816;-0.026;2023-06-14T11:06:23;101163.33;;;28.63;29.33
69239;BME280;56349;51.816;-0.026;2023-06-14T11:09:02;101162.73;;;28.77;29.44
69239;BME280;56349;51.816;-0.026;2023-06-14T11:11:13;101163.53;;;28.87;29.57
69239;BME280;56349;51.816;-0.026;2023-06-14T11:13:39;101158.28;;;28.52;29.70
69239;BME280;56349;51.816;-0.026;2023-06-14T11:16:10;101153.55;;;28.41;29.81
69239;BME280;56349;51.816;-0.026;2023-06-14T11:18:30;101150.26;;;28.30;29.91
69239;BME280;56349;51.816;-0.026;2023-06-14T11:20:56;101150.83;;;28.42;30.03
69239;BME280;56349;51.816;-0.026;2023-06-14T11:23:21;101147.61;;;28.09;30.15
69239;BME280;56349;51.816;-0.026;2023-06-14T11:25:50;101144.96;;;28.21;30.24
69239;BME280;56349;51.816;-0.026;2023-06-14T11:28:13;101141.62;;;28.11;30.36
69239;BME280;56349;51.816;-0.026;2023-06-14T11:30:39;101139.19;;;28.03;30.44
69239;BME280;56349;51.816;-0.026;2023-06-14T11:33:09;101134.85;;;27.96;30.50
69239;BME280;56349;51.816;-0.026;2023-06-14T11:35:30;101139.67;;;27.88;30.58
69239;BME280;56349;51.816;-0.026;2023-06-14T11:37:56;101138.08;;;27.57;30.69
69239;BME280;56349;51.816;-0.026;2023-06-14T11:40:24;101135.91;;;27.71;30.77
69239;BME280;56349;51.816;-0.026;2023-06-14T11:42:48;101140.82;;;27.64;30.84
69239;BME280;56349;51.816;-0.026;2023-06-14T11:45:14;101138.09;;;27.57;30.94
69239;BME280;56349;51.816;-0.026;2023-06-14T11:47:40;101134.54;;;27.50;31.02
69239;BME280;56349;51.816;-0.026;2023-06-14T11:50:08;101139.11;;;27.45;31.14
69239;BME280;56349;51.816;-0.026;2023-06-14T11:52:32;101134.53;;;27.44;31.28
69239;BME280;56349;51.816;-0.026;2023-06-14T11:54:59;101129.23;;;27.45;31.43
69239;BME280;56349;51.816;-0.026;2023-06-14T11:57:23;101130.24;;;27.76;31.48
69239;BME280;56349;51.816;-0.026;2023-06-14T11:59:49;101130.42;;;27.57;31.49
69239;BME280;56349;51.816;-0.026;2023-06-14T12:02:14;101132.43;;;27.70;31.46
69239;BME280;56349;51.816;-0.026;2023-06-14T12:04:41;101134.68;;;27.66;31.51
69239;BME280;56349;51.816;-0.026;2023-06-14T12:07:09;101127.41;;;27.59;31.36
69239;BME280;56349;51.816;-0.026;2023-06-14T12:09:30;101129.98;;;28.10;31.27
69239;BME280;56349;51.816;-0.026;2023-06-14T12:12:00;101127.98;;;28.36;31.10
69239;BME280;56349;51.816;-0.026;2023-06-14T12:14:28;101127.77;;;28.39;31.01
69239;BME280;56349;51.816;-0.026;2023-06-14T12:16:47;101130.20;;;28.68;30.67
69239;BME280;56349;51.816;-0.026;2023-06-14T12:19:14;101129.40;;;28.99;30.55
69239;BME280;56349;51.816;-0.026;2023-06-14T12:21:39;101129.34;;;29.08;30.26
69239;BME280;56349;51.816;-0.026;2023-06-14T12:24:05;101132.73;;;29.17;29.98
69239;BME280;56349;51.816;-0.026;2023-06-14T12:26:30;101129.61;;;29.47;29.83
69239;BME280;56349;51.816;-0.026;2023-06-14T12:28:56;101126.05;;;29.76;29.73
69239;BME280;56349;51.816;-0.026;2023-06-14T12:31:21;101129.27;;;29.73;29.53
69239;BME280;56349;51.816;-0.026;2023-06-14T12:33:49;101125.78;;;29.97;29.34
69239;BME280;56349;51.816;-0.026;2023-06-14T12:36:13;101124.45;;;30.22;28.86